Time;durP1;ratioP1;P1;durP2;ratioP2;P2;SDS_P1;SDS_P2;PMS_P1;PMS_P2;Temp;Humidity;BMP_temperature;BMP_pressure;BME280_temperature;BME280_humidity;BME280_pressure;Samples;Min_cycle;Max_cycle;Signal;HPM_P1;HPM_P2
2021/05/18 00:00:53;;;;;;;0.10;0.10;;;8.60;99.90;;;;;;5093214;28;20168;-72
2021/05/18 00:03:19;;;;;;;0.10;0.10;;;8.50;99.90;;;;;;5093277;28;20277;-72
2021/05/18 00:05:52;;;;;;;0.10;0.10;;;8.30;99.90;;;;;;5111423;28;20164;-72
2021/05/18 00:08:21;;;;;;;0.10;0.10;;;8.40;99.90;;;;;;5111375;28;20152;-70
2021/05/18 00:13:39;;;;;;;0.70;0.70;;;8.30;99.90;;;;;;5111051;28;20221;-72
2021/05/18 00:16:06;;;;;;;0.20;0.20;;;8.20;99.90;;;;;;5092884;28;20202;-71
2021/05/18 00:18:33;;;;;;;1.77;0.52;;;8.30;99.90;;;;;;5111063;28;20156;-71
2021/05/18 00:21:00;;;;;;;0.10;0.10;;;8.40;99.90;;;;;;5111077;28;20246;-70
2021/05/18 00:23:27;;;;;;;0.13;0.13;;;8.40;99.90;;;;;;5092420;28;20199;-70
2021/05/18 00:25:53;;;;;;;0.10;0.10;;;8.40;99.90;;;;;;5110804;28;20172;-72
2021/05/18 00:28:20;;;;;;;0.10;0.10;;;8.30;99.90;;;;;;5110789;28;20183;-71
2021/05/18 00:30:46;;;;;;;0.10;0.10;;;8.20;99.90;;;;;;5110753;28;20163;-71
2021/05/18 00:33:15;;;;;;;0.10;0.10;;;8.20;99.90;;;;;;5110578;28;20195;-70
2021/05/18 00:35:43;;;;;;;0.08;0.08;;;8.20;99.90;;;;;;5110587;28;20180;-72
2021/05/18 00:38:09;;;;;;;0.10;0.10;;;8.30;99.90;;;;;;5110611;28;20577;-72
2021/05/18 00:40:36;;;;;;;0.10;0.10;;;8.40;99.90;;;;;;5110372;28;20274;-71
2021/05/18 00:43:02;;;;;;;0.10;0.10;;;8.40;99.90;;;;;;5110541;28;20194;-70
2021/05/18 00:45:31;;;;;;;0.17;0.17;;;8.50;99.90;;;;;;5092203;28;20175;-70
2021/05/18 00:47:58;;;;;;;0.30;0.30;;;8.50;99.90;;;;;;5110414;28;20216;-70
2021/05/18 00:50:25;;;;;;;0.10;0.10;;;8.50;99.90;;;;;;5092297;28;20693;-72
2021/05/18 00:52:51;;;;;;;0.10;0.10;;;8.60;99.90;;;;;;5092020;28;20279;-71
2021/05/18 00:55:54;;;;;;;0.10;0.10;;;8.70;99.90;;;;;;5110111;28;20187;-72
2021/05/18 00:58:27;;;;;;;0.10;0.10;;;8.60;99.90;;;;;;5106923;28;20182;-72
2021/05/18 01:01:10;;;;;;;0.10;0.10;;;8.40;99.90;;;;;;5110280;28;20190;-72
2021/05/18 01:03:38;;;;;;;0.20;0.20;;;8.40;99.90;;;;;;5109909;28;20167;-72
2021/05/18 01:06:19;;;;;;;0.25;0.25;;;8.30;99.90;;;;;;5109724;28;20179;-72
2021/05/18 01:08:47;;;;;;;0.20;0.20;;;8.10;99.90;;;;;;5110060;28;20152;-71
2021/05/18 01:11:15;;;;;;;0.10;0.10;;;8.00;99.90;;;;;;5110039;28;20195;-72
2021/05/18 01:13:41;;;;;;;0.30;0.28;;;7.80;99.90;;;;;;5110114;28;20183;-70
2021/05/18 01:16:10;;;;;;;0.10;0.10;;;7.90;99.90;;;;;;5109914;28;20191;-71
2021/05/18 01:18:44;;;;;;;0.10;0.10;;;7.70;99.90;;;;;;5091722;28;20163;-70
2021/05/18 01:21:12;;;;;;;0.10;0.10;;;7.70;99.90;;;;;;5091555;28;20199;-72
2021/05/18 01:23:39;;;;;;;0.10;0.10;;;7.40;99.90;;;;;;5109916;28;20155;-72
2021/05/18 01:26:07;;;;;;;0.10;0.10;;;7.40;99.90;;;;;;5109966;28;20496;-72
2021/05/18 01:28:33;;;;;;;0.57;0.57;;;7.60;99.90;;;;;;5091556;28;20202;-71
2021/05/18 01:31:00;;;;;;;0.20;0.20;;;7.60;99.90;;;;;;5109713;28;20191;-72
2021/05/18 01:33:27;;;;;;;0.10;0.10;;;7.50;99.90;;;;;;5109732;28;20160;-71
2021/05/18 01:35:56;;;;;;;0.20;0.20;;;7.40;99.90;;;;;;5109083;28;20739;-72
2021/05/18 01:38:27;;;;;;;0.10;0.10;;;7.40;99.90;;;;;;5091466;28;20171;-70
2021/05/18 01:43:37;;;;;;;0.10;0.10;;;7.30;99.90;;;;;;5109640;28;20159;-72
2021/05/18 01:46:03;;;;;;;0.10;0.10;;;7.30;99.90;;;;;;5091469;28;20167;-72
2021/05/18 01:48:36;;;;;;;0.10;0.10;;;7.40;99.90;;;;;;5109687;28;20159;-71
2021/05/18 01:51:02;;;;;;;0.30;0.30;;;7.40;99.90;;;;;;5109209;28;20191;-70
2021/05/18 01:53:28;;;;;;;0.20;0.20;;;7.20;99.90;;;;;;5109455;28;20152;-71
2021/05/18 01:56:14;;;;;;;0.10;0.10;;;7.20;99.90;;;;;;5109303;28;20179;-72
2021/05/18 01:58:41;;;;;;;0.68;0.50;;;7.20;99.90;;;;;;5109559;28;20219;-70
2021/05/18 02:01:07;;;;;;;0.10;0.10;;;7.10;99.90;;;;;;5109169;28;20189;-71
2021/05/18 02:03:33;;;;;;;0.10;0.10;;;7.10;99.90;;;;;;5109333;28;20215;-71
2021/05/18 02:05:59;;;;;;;0.20;0.20;;;7.30;99.90;;;;;;5109357;28;20644;-72
2021/05/18 02:08:25;;;;;;;0.20;0.20;;;7.30;99.90;;;;;;5109362;28;20151;-70
2021/05/18 02:10:51;;;;;;;0.25;0.25;;;7.20;99.90;;;;;;5109329;28;20203;-72
2021/05/18 02:13:17;;;;;;;0.10;0.10;;;7.10;99.90;;;;;;5109379;28;20255;-71
2021/05/18 02:15:53;;;;;;;0.20;0.20;;;7.10;99.90;;;;;;5090975;28;20195;-70
2021/05/18 02:26:21;;;;;;;0.20;0.20;;;7.00;99.90;;;;;;5109193;28;20186;-71
2021/05/18 02:28:47;;;;;;;0.20;0.20;;;7.00;99.90;;;;;;5109117;28;20170;-72
2021/05/18 02:31:13;;;;;;;0.70;0.70;;;7.00;99.90;;;;;;5090871;28;20577;-72
2021/05/18 02:33:42;;;;;;;0.10;0.10;;;7.10;99.90;;;;;;5108790;28;20231;-70
2021/05/18 02:36:08;;;;;;;0.10;0.10;;;7.00;99.90;;;;;;5109088;28;20187;-70
2021/05/18 02:38:34;;;;;;;0.45;0.45;;;7.10;99.90;;;;;;5108970;28;20170;-70
2021/05/18 02:41:00;;;;;;;0.20;0.20;;;7.20;99.90;;;;;;5108653;28;20219;-70
2021/05/18 02:43:32;;;;;;;0.30;0.30;;;7.20;99.90;;;;;;5090605;28;20690;-72
2021/05/18 02:51:28;;;;;;;0.20;0.20;;;7.20;99.90;;;;;;5112577;28;20224;-70
2021/05/18 02:53:54;;;;;;;0.10;0.10;;;7.20;99.90;;;;;;5112619;28;20160;-71
2021/05/18 02:59:12;;;;;;;0.10;0.10;;;7.20;99.90;;;;;;5112500;28;20160;-72
2021/05/18 03:01:39;;;;;;;0.10;0.10;;;7.30;99.90;;;;;;5112532;28;20190;-71
2021/05/18 03:04:05;;;;;;;0.32;0.32;;;7.20;99.90;;;;;;5094306;28;20167;-70
2021/05/18 03:06:33;;;;;;;0.20;0.20;;;7.30;99.90;;;;;;5094151;28;20213;-71
2021/05/18 03:08:59;;;;;;;1.55;1.45;;;7.10;99.90;;;;;;5093863;28;20168;-71
2021/05/18 03:11:25;;;;;;;0.28;0.28;;;7.10;99.90;;;;;;5112180;28;20183;-72
2021/05/18 03:13:54;;;;;;;0.10;0.10;;;7.00;99.90;;;;;;5112239;28;20178;-71
2021/05/18 03:16:21;;;;;;;0.10;0.10;;;6.90;99.90;;;;;;5112142;28;20243;-71
2021/05/18 03:18:46;;;;;;;0.10;0.10;;;6.90;99.90;;;;;;5112256;28;20215;-71
2021/05/18 03:21:12;;;;;;;0.20;0.20;;;6.90;99.90;;;;;;5112108;28;20217;-72
2021/05/18 03:23:38;;;;;;;0.30;0.30;;;6.80;99.90;;;;;;5112201;28;20159;-72
2021/05/18 03:26:04;;;;;;;0.30;0.30;;;6.70;99.90;;;;;;5112091;28;20163;-72
2021/05/18 03:28:30;;;;;;;0.25;0.25;;;6.70;99.90;;;;;;5112155;28;20152;-72
2021/05/18 03:31:14;;;;;;;0.20;0.20;;;6.90;99.90;;;;;;5111924;28;20240;-72
2021/05/18 03:36:25;;;;;;;0.17;0.17;;;6.90;99.90;;;;;;5111746;28;20194;-70
2021/05/18 03:38:55;;;;;;;0.10;0.10;;;7.00;99.90;;;;;;5111805;28;20151;-70
2021/05/18 03:41:30;;;;;;;0.43;0.43;;;7.10;99.90;;;;;;5111503;28;20219;-70
2021/05/18 03:44:14;;;;;;;0.10;0.10;;;7.10;99.90;;;;;;5093456;28;20197;-72
2021/05/18 03:54:27;;;;;;;0.10;0.10;;;7.30;99.90;;;;;;5111403;28;20173;-72
2021/05/18 04:19:21;;;;;;;0.20;0.20;;;13.20;99.90;;;;;;5111044;28;20275;-72
2021/05/18 04:59:07;;;;;;;0.20;0.20;;;16.20;99.90;;;;;;5110331;28;20581;-69
2021/05/18 05:04:16;;;;;;;0.52;0.43;;;16.80;99.90;;;;;;5110120;28;20278;-72
2021/05/18 05:09:21;;;;;;;0.22;0.22;;;18.00;99.90;;;;;;5109568;28;20181;-71
2021/05/18 05:14:32;;;;;;;0.15;0.15;;;18.40;99.90;;;;;;5109900;28;20222;-71
2021/05/18 05:16:58;;;;;;;0.20;0.17;;;18.30;99.90;;;;;;5091252;28;20195;-71
2021/05/18 05:19:29;;;;;;;0.10;0.10;;;18.00;99.90;;;;;;5109879;28;20619;-71
2021/05/18 05:21:58;;;;;;;0.10;0.10;;;17.00;99.90;;;;;;5109928;28;20151;-71
2021/05/18 05:24:25;;;;;;;0.10;0.10;;;18.20;99.90;;;;;;5109461;28;20194;-71
2021/05/18 05:26:52;;;;;;;0.98;0.98;;;19.00;99.90;;;;;;5109641;28;20179;-71
2021/05/18 05:29:18;;;;;;;0.73;0.73;;;19.40;99.90;;;;;;5109291;28;20166;-71
2021/05/18 05:31:45;;;;;;;0.30;0.30;;;19.80;99.90;;;;;;5109676;28;20182;-70
2021/05/18 05:34:11;;;;;;;0.10;0.10;;;19.70;99.90;;;;;;5109364;28;20191;-71
2021/05/18 05:36:38;;;;;;;0.10;0.10;;;19.50;99.90;;;;;;5109537;28;20220;-70
2021/05/18 05:39:12;;;;;;;0.45;0.45;;;18.90;99.90;;;;;;5090979;28;20167;-70
2021/05/18 05:41:38;;;;;;;0.68;0.47;;;18.40;99.90;;;;;;5109055;28;20247;-70
2021/05/18 05:44:05;;;;;;;0.10;0.10;;;18.20;99.90;;;;;;5091350;28;20686;-71
2021/05/18 05:46:32;;;;;;;0.40;0.15;;;18.10;99.90;;;;;;5109369;28;20147;-70
2021/05/18 05:48:58;;;;;;;0.77;0.70;;;18.60;99.90;;;;;;5109387;28;20525;-71
2021/05/18 05:51:27;;;;;;;1.75;1.10;;;20.00;99.90;;;;;;5090706;28;20248;-72
2021/05/18 05:53:55;;;;;;;0.20;0.20;;;21.60;99.90;;;;;;5109272;28;20198;-71
2021/05/18 05:56:21;;;;;;;0.43;0.38;;;22.60;99.90;;;;;;5109297;28;20206;-71
2021/05/18 05:58:48;;;;;;;0.20;0.20;;;22.80;99.90;;;;;;5109492;28;20155;-72
2021/05/18 06:01:16;;;;;;;0.30;0.30;;;23.20;99.90;;;;;;5109118;28;20167;-71
2021/05/18 06:03:43;;;;;;;0.15;0.15;;;23.30;99.90;;;;;;5109165;28;20194;-71
2021/05/18 06:06:09;;;;;;;0.40;0.40;;;22.70;99.90;;;;;;5109190;28;20181;-71
2021/05/18 06:08:42;;;;;;;0.22;0.22;;;22.40;99.90;;;;;;5109447;28;20186;-71
2021/05/18 06:11:24;;;;;;;0.30;0.30;;;21.90;99.90;;;;;;5109018;28;20155;-71
2021/05/18 06:16:55;;;;;;;0.70;0.55;;;22.10;99.90;;;;;;5109108;28;20178;-71
2021/05/18 06:49:00;;;;;;;0.95;0.75;;;25.00;99.90;;;;;;5050078;28;20176;-71
2021/05/18 06:51:26;;;;;;;0.20;0.20;;;26.10;99.90;;;;;;5050422;28;20212;-71
2021/05/18 06:53:53;;;;;;;0.15;0.15;;;26.10;99.90;;;;;;5050233;28;20207;-71
2021/05/18 06:56:19;;;;;;;0.10;0.03;;;26.90;99.90;;;;;;5042306;28;20222;-71
2021/05/18 07:01:10;;;;;;;0.10;0.10;;;27.60;99.90;;;;;;5112708;28;20167;-71
2021/05/18 07:03:42;;;;;;;0.50;0.50;;;28.40;99.90;;;;;;5093420;28;20175;-71
2021/05/18 07:11:00;;;;;;;0.05;0.05;;;24.90;99.90;;;;;;5112384;28;20166;-71
2021/05/18 07:13:26;;;;;;;0.30;0.30;;;24.00;99.90;;;;;;5094067;28;20173;-70
2021/05/18 07:15:52;;;;;;;0.95;0.85;;;23.80;99.90;;;;;;5112484;28;20189;-70
2021/05/18 07:18:18;;;;;;;1.38;0.47;;;23.10;99.90;;;;;;5111961;28;20190;-71
2021/05/18 07:20:44;;;;;;;0.10;0.10;;;23.20;99.90;;;;;;5094102;28;20226;-71
2021/05/18 07:23:13;;;;;;;0.17;0.17;;;23.20;99.90;;;;;;5112249;28;20186;-71
2021/05/18 07:25:39;;;;;;;0.10;0.10;;;24.10;99.90;;;;;;5112081;28;20227;-71
2021/05/18 07:28:07;;;;;;;0.15;0.15;;;24.80;99.90;;;;;;5093787;28;20225;-71
2021/05/18 07:30:35;;;;;;;0.00;0.00;;;26.10;99.90;;;;;;5111860;28;20157;-71
2021/05/18 07:33:01;;;;;;;0.20;0.20;;;26.80;99.90;;;;;;5110842;28;20154;-71
2021/05/18 07:35:28;;;;;;;0.05;0.05;;;27.30;99.90;;;;;;5112011;28;20189;-71
2021/05/18 07:37:53;;;;;;;5.05;0.55;;;28.40;98.10;;;;;;5093648;28;20194;-72
2021/05/18 07:40:23;;;;;;;0.20;0.20;;;28.60;98.00;;;;;;5093315;28;20170;-72
2021/05/18 07:42:51;;;;;;;0.13;0.13;;;28.70;95.70;;;;;;5111864;28;20161;-71
2021/05/18 07:45:26;;;;;;;0.30;0.30;;;27.60;95.40;;;;;;5111737;28;20147;-71
2021/05/18 07:47:58;;;;;;;8.25;0.30;;;27.50;96.40;;;;;;5111482;28;20532;-72
2021/05/18 07:50:35;;;;;;;0.10;0.10;;;27.50;95.20;;;;;;5111745;28;20149;-72
2021/05/18 08:06:44;;;;;;;0.10;0.10;;;19.20;99.90;;;;;;5048935;28;20177;-71
2021/05/18 08:09:10;;;;;;;0.00;0.00;;;19.70;99.90;;;;;;5097663;28;20733;-71
2021/05/18 08:11:35;;;;;;;0.00;0.00;;;21.80;99.80;;;;;;5093033;28;20274;-72
2021/05/18 08:14:01;;;;;;;0.38;0.38;;;23.50;98.40;;;;;;5111160;28;20166;-71
2021/05/18 08:19:18;;;;;;;0.10;0.10;;;22.90;97.10;;;;;;5111067;28;20254;-71
2021/05/18 10:18:48;;;;;;;0.00;0.00;;;21.50;99.90;;;;;;5088717;28;20191;-72
2021/05/18 10:35:59;;;;;;;0.00;0.00;;;22.60;96.90;;;;;;5108930;28;20209;-71
2021/05/18 10:38:30;;;;;;;0.00;0.00;;;22.00;98.00;;;;;;5090655;28;20197;-71
2021/05/18 10:41:12;;;;;;;0.00;0.00;;;21.60;96.70;;;;;;5108659;28;20238;-71
2021/05/18 10:43:39;;;;;;;0.00;0.00;;;23.10;95.70;;;;;;5108784;28;20178;-71
2021/05/18 10:46:08;;;;;;;0.00;0.00;;;23.00;95.70;;;;;;5090497;28;20173;-71
2021/05/18 10:48:37;;;;;;;0.00;0.00;;;23.30;94.60;;;;;;5108829;28;20198;-72
2021/05/18 10:51:25;;;;;;;0.10;0.10;;;24.60;93.60;;;;;;5108739;28;20178;-72
2021/05/18 10:54:19;;;;;;;0.00;0.00;;;25.30;93.50;;;;;;5108931;28;20539;-72
2021/05/18 10:56:54;;;;;;;0.00;0.00;;;24.50;94.60;;;;;;5108719;28;20190;-71
2021/05/18 10:59:26;;;;;;;0.08;0.08;;;25.30;92.90;;;;;;5108139;28;20186;-71
2021/05/18 11:02:14;;;;;;;5.20;0.57;;;25.00;94.40;;;;;;5090472;28;20171;-71
2021/05/18 11:04:42;;;;;;;0.00;0.00;;;24.70;93.40;;;;;;5108781;28;20152;-71
2021/05/18 11:07:10;;;;;;;0.00;0.00;;;24.30;96.10;;;;;;5109216;28;20215;-72
2021/05/18 11:09:37;;;;;;;0.38;0.20;;;24.60;93.90;;;;;;5112357;28;20166;-71
2021/05/18 11:12:12;;;;;;;0.05;0.05;;;24.50;92.80;;;;;;5094076;28;20260;-71
2021/05/18 11:14:45;;;;;;;0.00;0.00;;;23.60;93.30;;;;;;5093747;28;20283;-71
2021/05/18 11:17:17;;;;;;;0.00;0.00;;;22.70;94.40;;;;;;5091853;28;20212;-71
2021/05/18 11:20:23;;;;;;;0.00;0.00;;;21.80;94.20;;;;;;5095038;28;20159;-71
2021/05/18 11:25:36;;;;;;;0.00;0.00;;;23.00;94.90;;;;;;5091707;28;20259;-71
2021/05/18 11:28:11;;;;;;;0.20;0.20;;;22.80;93.30;;;;;;5091733;28;20398;-72
2021/05/18 11:30:38;;;;;;;0.22;0.15;;;22.40;93.00;;;;;;5091362;28;20174;-71
2021/05/18 11:33:04;;;;;;;0.17;0.15;;;21.90;94.90;;;;;;5091541;28;20221;-71
2021/05/18 11:35:32;;;;;;;0.00;0.00;;;21.90;94.40;;;;;;5073497;28;20229;-71
2021/05/18 11:38:18;;;;;;;0.00;0.00;;;22.40;94.60;;;;;;5091504;28;20184;-71
2021/05/18 11:40:52;;;;;;;0.00;0.00;;;22.80;93.80;;;;;;5091013;28;20222;-72
2021/05/18 11:43:27;;;;;;;0.00;0.00;;;23.50;93.50;;;;;;5091392;28;20239;-71
2021/05/18 11:46:05;;;;;;;0.00;0.00;;;23.20;93.30;;;;;;5090747;28;20163;-71
2021/05/18 11:48:31;;;;;;;0.25;0.22;;;22.60;93.90;;;;;;5091218;28;20195;-71
2021/05/18 11:51:08;;;;;;;0.10;0.10;;;21.50;94.70;;;;;;5073411;28;20175;-71
2021/05/18 11:54:05;;;;;;;0.08;0.08;;;20.70;95.70;;;;;;5073229;28;20175;-70
2021/05/18 11:56:39;;;;;;;0.30;0.30;;;21.60;96.00;;;;;;5048907;28;20208;-71
2021/05/18 11:59:10;;;;;;;0.00;0.00;;;22.80;96.60;;;;;;5049006;28;20188;-71
2021/05/18 12:01:56;;;;;;;0.00;0.00;;;23.30;92.30;;;;;;5049162;28;20281;-70
2021/05/18 12:04:25;;;;;;;0.00;0.00;;;22.80;92.90;;;;;;5032347;28;20272;-71
2021/05/18 12:07:01;;;;;;;0.00;0.00;;;23.30;91.90;;;;;;5048899;28;20185;-71
2021/05/18 12:09:29;;;;;;;0.00;0.00;;;23.00;93.10;;;;;;5048423;28;20196;-71
2021/05/18 12:12:04;;;;;;;0.00;0.00;;;22.70;94.30;;;;;;5048767;28;20204;-71
2021/05/18 12:14:31;;;;;;;0.00;0.00;;;22.60;93.60;;;;;;5048749;28;20184;-71
2021/05/18 12:16:58;;;;;;;0.05;0.05;;;22.10;93.20;;;;;;5052460;28;20195;-71
2021/05/18 12:19:24;;;;;;;0.00;0.00;;;21.60;94.10;;;;;;5051059;28;20196;-71
2021/05/18 12:21:53;;;;;;;0.10;0.10;;;20.90;94.60;;;;;;5051716;28;20180;-71
2021/05/18 12:24:21;;;;;;;0.00;0.00;;;20.90;94.60;;;;;;5068199;28;20184;-71
2021/05/18 12:26:53;;;;;;;0.10;0.10;;;21.10;95.70;;;;;;5068506;28;20673;-71
2021/05/18 12:29:31;;;;;;;0.00;0.00;;;20.90;95.30;;;;;;5068275;28;20196;-71
2021/05/18 12:32:16;;;;;;;0.30;0.30;;;20.70;95.10;;;;;;5073578;28;20157;-71
2021/05/18 12:34:42;;;;;;;0.10;0.10;;;21.00;94.80;;;;;;5092152;28;20199;-71
2021/05/18 12:37:08;;;;;;;0.10;0.10;;;20.70;95.40;;;;;;5110518;28;20213;-70
2021/05/18 12:39:41;;;;;;;0.10;0.10;;;20.90;95.40;;;;;;5110684;28;20187;-70
2021/05/18 12:42:11;;;;;;;0.10;0.10;;;20.90;96.30;;;;;;5110464;28;20211;-71
2021/05/18 12:44:57;;;;;;;0.10;0.10;;;20.90;95.00;;;;;;5092238;28;20213;-71
2021/05/18 12:47:35;;;;;;;0.10;0.10;;;21.30;95.60;;;;;;5110313;28;20190;-70
2021/05/18 12:50:11;;;;;;;0.00;0.00;;;21.70;94.10;;;;;;5110437;28;20155;-71
2021/05/18 12:52:51;;;;;;;0.08;0.08;;;21.60;94.80;;;;;;5092091;28;20171;-71
2021/05/18 12:55:26;;;;;;;0.30;0.30;;;21.30;94.90;;;;;;5091753;28;20167;-71
2021/05/18 12:57:56;;;;;;;0.10;0.10;;;21.20;95.70;;;;;;5110285;28;20213;-71
2021/05/18 13:00:38;;;;;;;0.00;0.00;;;21.10;95.50;;;;;;5109868;28;20211;-71
2021/05/18 13:03:14;;;;;;;17.92;0.47;;;20.80;95.50;;;;;;5109316;28;20174;-71
2021/05/18 13:05:43;;;;;;;0.10;0.10;;;20.40;98.50;;;;;;5110122;28;20167;-71
2021/05/18 13:08:21;;;;;;;0.03;0.03;;;20.20;95.30;;;;;;5109696;28;20191;-71
2021/05/18 13:13:49;;;;;;;0.10;0.10;;;19.90;98.00;;;;;;5109386;28;20612;-71
2021/05/18 13:16:20;;;;;;;0.30;0.30;;;19.80;98.30;;;;;;5109429;28;20214;-71
2021/05/18 13:18:52;;;;;;;0.00;0.00;;;19.60;99.00;;;;;;5091259;28;20262;-70
2021/05/18 13:21:24;;;;;;;2.92;0.65;;;18.80;99.90;;;;;;5109446;28;20175;-71
2021/05/18 13:26:35;;;;;;;0.00;0.00;;;16.60;99.90;;;;;;5109673;28;20159;-72
2021/05/18 13:29:15;;;;;;;0.10;0.10;;;15.00;99.90;;;;;;5091454;28;20198;-71
2021/05/18 13:31:42;;;;;;;0.10;0.10;;;14.30;99.90;;;;;;5108677;28;20159;-71
2021/05/18 13:34:08;;;;;;;0.05;0.05;;;14.20;99.90;;;;;;5109705;28;20627;-71
2021/05/18 13:36:36;;;;;;;0.10;0.10;;;14.10;99.90;;;;;;5091098;28;20209;-71
2021/05/18 13:39:09;;;;;;;0.00;0.00;;;14.40;99.90;;;;;;5090902;28;20195;-72
2021/05/18 13:41:36;;;;;;;0.10;0.10;;;14.90;99.90;;;;;;5108832;28;20219;-72
2021/05/18 13:44:04;;;;;;;0.10;0.10;;;15.30;99.90;;;;;;5109228;28;20159;-71
2021/05/18 13:46:31;;;;;;;0.00;0.00;;;16.00;99.90;;;;;;5091224;28;20182;-72
2021/05/18 13:48:58;;;;;;;0.10;0.10;;;16.40;99.90;;;;;;5109132;28;20270;-72
2021/05/18 13:51:24;;;;;;;0.03;0.03;;;16.80;99.90;;;;;;5109474;28;20211;-72
2021/05/18 13:53:49;;;;;;;0.03;0.03;;;17.10;99.90;;;;;;5109591;28;20166;-72
2021/05/18 13:56:16;;;;;;;0.05;0.05;;;17.40;99.90;;;;;;5090861;28;20191;-72
2021/05/18 13:58:41;;;;;;;0.00;0.00;;;17.60;99.90;;;;;;5091085;28;20198;-72
2021/05/18 14:01:10;;;;;;;0.00;0.00;;;17.50;99.90;;;;;;5091180;28;20624;-72
2021/05/18 14:03:38;;;;;;;0.00;0.00;;;17.40;99.90;;;;;;5109187;28;20526;-73
2021/05/18 14:06:05;;;;;;;0.10;0.10;;;17.40;99.90;;;;;;5090957;28;20189;-72
2021/05/18 14:08:35;;;;;;;0.08;0.08;;;17.40;99.90;;;;;;5091218;28;20199;-73
2021/05/18 14:11:03;;;;;;;6.82;0.82;;;17.50;99.90;;;;;;5109376;28;20163;-73
2021/05/18 14:13:32;;;;;;;0.10;0.10;;;17.60;99.90;;;;;;5109359;28;20156;-72
2021/05/18 14:16:03;;;;;;;0.10;0.10;;;17.80;99.90;;;;;;5109155;28;20187;-73
2021/05/18 14:18:30;;;;;;;0.28;0.13;;;17.90;99.90;;;;;;5108889;28;20271;-73
2021/05/18 14:20:56;;;;;;;0.00;0.00;;;17.80;99.90;;;;;;5090929;28;20175;-73
2021/05/18 14:23:24;;;;;;;0.10;0.10;;;17.90;99.90;;;;;;5109125;28;20163;-73
2021/05/18 14:25:52;;;;;;;0.10;0.10;;;18.00;99.90;;;;;;5109193;28;20170;-73
2021/05/18 14:28:19;;;;;;;0.10;0.10;;;17.90;99.90;;;;;;5109202;28;20239;-73
2021/05/18 14:30:47;;;;;;;0.20;0.20;;;18.10;99.90;;;;;;5090834;28;20182;-72
2021/05/18 14:33:13;;;;;;;0.10;0.10;;;18.30;99.90;;;;;;5074378;28;20179;-72
2021/05/18 14:35:39;;;;;;;0.10;0.10;;;18.40;99.90;;;;;;5090490;28;20201;-72
2021/05/18 14:38:12;;;;;;;0.10;0.10;;;18.50;99.90;;;;;;5108731;28;20218;-72
2021/05/18 14:46:03;;;;;;;0.10;0.10;;;19.10;99.90;;;;;;5113069;28;20167;-72
2021/05/18 14:54:14;;;;;;;0.00;0.00;;;19.30;99.90;;;;;;5112567;28;20803;-73
2021/05/18 14:56:29;;;;;;;1.23;0.68;;;19.20;99.90;;;;;;5112058;28;20298;-73
2021/05/18 14:58:54;;;;;;;0.10;0.10;;;19.00;99.90;;;;;;5112324;28;20187;-73
2021/05/18 15:01:20;;;;;;;0.00;0.00;;;19.20;99.90;;;;;;5112345;28;20238;-73
2021/05/18 15:03:46;;;;;;;0.00;0.00;;;19.40;99.90;;;;;;5094171;28;20170;-73
2021/05/18 15:06:12;;;;;;;0.95;0.38;;;19.60;99.90;;;;;;5094123;28;20167;-72
2021/05/18 15:08:38;;;;;;;0.10;0.10;;;19.80;99.90;;;;;;5111972;28;20199;-72
2021/05/18 15:11:05;;;;;;;0.00;0.00;;;19.80;99.90;;;;;;5093818;28;20203;-72
2021/05/18 15:13:33;;;;;;;0.30;0.30;;;19.90;99.90;;;;;;5093989;28;20231;-72
2021/05/18 15:15:59;;;;;;;0.40;0.40;;;19.90;99.90;;;;;;5112286;28;20199;-73
2021/05/18 15:18:25;;;;;;;0.32;0.32;;;20.20;99.90;;;;;;5111558;28;20207;-73
2021/05/18 15:20:52;;;;;;;0.00;0.00;;;20.10;99.90;;;;;;5111966;28;20198;-73
2021/05/18 15:23:18;;;;;;;0.20;0.20;;;19.20;99.90;;;;;;5093635;28;20186;-73
2021/05/18 15:25:45;;;;;;;0.10;0.10;;;18.60;99.90;;;;;;5112258;28;20170;-73
2021/05/18 15:28:11;;;;;;;0.00;0.00;;;18.40;99.90;;;;;;5093763;28;20195;-73
2021/05/18 15:30:37;;;;;;;0.20;0.20;;;18.30;99.90;;;;;;5111780;28;20187;-73
2021/05/18 15:33:03;;;;;;;0.10;0.10;;;18.10;99.90;;;;;;5111853;28;20551;-73
2021/05/18 15:35:30;;;;;;;0.15;0.15;;;18.10;99.90;;;;;;5093398;28;20172;-72
2021/05/18 15:37:56;;;;;;;0.00;0.00;;;18.10;99.90;;;;;;5093612;28;20195;-73
2021/05/18 15:40:22;;;;;;;0.00;0.00;;;18.30;99.90;;;;;;5093200;28;20171;-73
2021/05/18 15:42:48;;;;;;;0.30;0.30;;;18.40;99.90;;;;;;5093826;28;20163;-73
2021/05/18 15:45:14;;;;;;;0.10;0.10;;;18.50;99.90;;;;;;5111718;28;20216;-73
2021/05/18 15:47:41;;;;;;;4.78;0.30;;;18.20;99.90;;;;;;5111467;28;20215;-73
2021/05/18 15:50:08;;;;;;;0.30;0.30;;;18.30;99.90;;;;;;5111620;28;20250;-73
2021/05/18 15:52:35;;;;;;;0.68;0.57;;;18.30;99.90;;;;;;5111560;28;20235;-73
2021/05/18 15:55:05;;;;;;;0.00;0.00;;;18.10;99.90;;;;;;5110655;28;20186;-73
2021/05/18 15:57:32;;;;;;;0.10;0.10;;;17.80;99.90;;;;;;5111533;28;20261;-73
2021/05/18 15:59:58;;;;;;;0.10;0.10;;;17.80;99.90;;;;;;5092806;28;20205;-73
2021/05/18 16:02:24;;;;;;;0.00;0.00;;;17.90;99.90;;;;;;5092381;28;20187;-73
2021/05/18 16:04:51;;;;;;;0.10;0.10;;;17.90;99.90;;;;;;5110617;28;20239;-73
2021/05/18 16:07:18;;;;;;;0.03;0.03;;;17.90;99.90;;;;;;5111185;28;20197;-73
2021/05/18 16:09:44;;;;;;;0.08;0.08;;;17.80;99.90;;;;;;5105036;28;20259;-73
2021/05/18 16:12:12;;;;;;;0.00;0.00;;;17.80;99.90;;;;;;5073907;28;20275;-73
2021/05/18 16:14:38;;;;;;;0.05;0.05;;;17.80;99.90;;;;;;5092138;28;20249;-73
2021/05/18 16:17:04;;;;;;;0.10;0.10;;;17.80;99.90;;;;;;5092597;28;20258;-73
2021/05/18 16:19:31;;;;;;;1.75;0.73;;;17.90;99.90;;;;;;5110330;28;20167;-74
2021/05/18 16:21:57;;;;;;;0.00;0.00;;;17.90;99.90;;;;;;5110857;28;20195;-73
2021/05/18 16:24:25;;;;;;;0.20;0.20;;;18.00;99.90;;;;;;5092600;28;20170;-73
2021/05/18 16:26:53;;;;;;;0.10;0.10;;;17.90;99.90;;;;;;5110661;28;20201;-73
2021/05/18 16:29:20;;;;;;;0.00;0.00;;;17.90;99.90;;;;;;5110736;28;20162;-73
2021/05/18 16:31:47;;;;;;;0.10;0.10;;;17.80;99.90;;;;;;5091965;28;20202;-73
2021/05/18 16:34:15;;;;;;;0.03;0.03;;;17.70;99.90;;;;;;5110422;28;20159;-73
2021/05/18 16:36:42;;;;;;;0.00;0.00;;;17.60;99.90;;;;;;5092909;28;20199;-73
2021/05/18 16:39:09;;;;;;;0.10;0.10;;;17.50;99.90;;;;;;5092692;28;20155;-73
2021/05/18 16:41:40;;;;;;;0.17;0.17;;;17.20;99.90;;;;;;5088172;28;20220;-73
2021/05/18 16:44:07;;;;;;;0.10;0.10;;;16.70;99.90;;;;;;5089761;28;20247;-73
2021/05/18 16:46:34;;;;;;;0.10;0.10;;;16.50;99.90;;;;;;5089855;28;20159;-73
2021/05/18 16:49:01;;;;;;;0.10;0.10;;;16.20;99.90;;;;;;5088777;28;20178;-73
2021/05/18 16:51:27;;;;;;;0.17;0.17;;;15.70;99.90;;;;;;5087379;28;20436;-73
2021/05/18 16:53:53;;;;;;;0.10;0.10;;;15.10;99.90;;;;;;5089838;28;20157;-73
2021/05/18 16:56:21;;;;;;;0.10;0.10;;;14.60;99.90;;;;;;5088362;28;20184;-73
2021/05/18 16:58:47;;;;;;;2.45;1.35;;;14.30;99.90;;;;;;5089735;28;20157;-73
2021/05/18 17:01:13;;;;;;;0.00;0.00;;;14.20;99.90;;;;;;5089077;28;20192;-73
2021/05/18 17:03:39;;;;;;;0.00;0.00;;;14.10;99.90;;;;;;5089764;28;20209;-72
2021/05/18 17:06:05;;;;;;;0.00;0.00;;;14.00;99.90;;;;;;5087894;28;20191;-73
2021/05/18 17:08:34;;;;;;;0.00;0.00;;;14.10;99.90;;;;;;5089503;28;20168;-73
2021/05/18 17:10:59;;;;;;;0.10;0.10;;;14.10;99.90;;;;;;5087801;28;20200;-72
2021/05/18 17:13:25;;;;;;;0.10;0.10;;;14.30;99.90;;;;;;5089373;28;20244;-72
2021/05/18 17:15:52;;;;;;;0.10;0.10;;;14.40;99.90;;;;;;5088058;28;20184;-72
2021/05/18 17:18:17;;;;;;;0.13;0.13;;;14.50;99.90;;;;;;5084774;28;20241;-72
2021/05/18 17:20:44;;;;;;;0.00;0.00;;;14.60;99.90;;;;;;5080321;28;20274;-72
2021/05/18 17:23:12;;;;;;;0.00;0.00;;;14.80;99.90;;;;;;5089540;28;20164;-72
2021/05/18 17:25:38;;;;;;;0.10;0.10;;;14.80;99.90;;;;;;5089105;28;20152;-72
2021/05/18 17:28:04;;;;;;;0.10;0.10;;;15.00;99.90;;;;;;5089396;28;20167;-72
2021/05/18 17:30:30;;;;;;;0.05;0.05;;;15.10;99.90;;;;;;5088790;28;20163;-72
2021/05/18 17:32:56;;;;;;;0.03;0.03;;;15.10;99.90;;;;;;5089180;28;20596;-72
2021/05/18 17:35:24;;;;;;;0.10;0.10;;;15.10;99.90;;;;;;5088889;28;20179;-73
2021/05/18 17:37:52;;;;;;;0.00;0.00;;;15.00;99.90;;;;;;5089412;28;20159;-73
2021/05/18 17:40:19;;;;;;;0.10;0.10;;;15.00;99.90;;;;;;5088432;28;20408;-73
2021/05/18 17:42:45;;;;;;;0.00;0.00;;;15.00;99.90;;;;;;5109548;28;20155;-73
2021/05/18 17:45:13;;;;;;;0.20;0.20;;;15.00;99.90;;;;;;5091402;28;20199;-73
2021/05/18 17:47:40;;;;;;;0.10;0.10;;;15.00;99.90;;;;;;5091225;28;20171;-73
2021/05/18 17:50:08;;;;;;;0.10;0.10;;;15.00;99.90;;;;;;5109483;28;20171;-73
2021/05/18 17:52:34;;;;;;;0.15;0.15;;;14.90;99.90;;;;;;5091146;28;20174;-73
2021/05/18 17:55:00;;;;;;;0.17;0.17;;;14.80;99.90;;;;;;5091400;28;20627;-72
2021/05/18 17:57:26;;;;;;;0.10;0.10;;;14.80;99.90;;;;;;5109632;28;20217;-73
2021/05/18 17:59:52;;;;;;;0.10;0.10;;;14.70;99.90;;;;;;5091450;28;20174;-73
2021/05/18 18:02:17;;;;;;;0.10;0.10;;;14.70;99.90;;;;;;5091268;28;20236;-73
2021/05/18 18:04:43;;;;;;;0.00;0.00;;;14.60;99.90;;;;;;5091021;28;20172;-72
2021/05/18 18:07:09;;;;;;;0.15;0.15;;;14.50;99.90;;;;;;5109287;28;20206;-72